createdAt,value
2016-06-25T00:00:22.619Z,72.29
2016-06-25T00:01:22.626Z,72.19
2016-06-25T00:02:22.631Z,72.29
2016-06-25T00:03:22.626Z,72.58
2016-06-25T00:04:22.633Z,72.29
2016-06-25T00:05:22.643Z,72.29
2016-06-25T00:06:22.645Z,72.29
2016-06-25T00:07:22.643Z,72.19
2016-06-25T00:08:22.650Z,72.09
2016-06-25T00:09:22.645Z,72.19
2016-06-25T00:10:22.653Z,72.29
2016-06-25T00:11:22.673Z,72.29
2016-06-25T00:12:22.668Z,72.19
2016-06-25T00:13:22.659Z,72.19
2016-06-25T00:14:22.660Z,72.09
2016-06-25T00:15:22.671Z,72.29
2016-06-25T00:16:22.666Z,72.39
2016-06-25T00:17:22.675Z,72
2016-06-25T00:18:22.674Z,72.19
2016-06-25T00:19:22.677Z,72.19
2016-06-25T00:20:22.690Z,72.19
2016-06-25T00:21:22.678Z,72.19
2016-06-25T00:22:22.687Z,72.06
2016-06-25T00:23:22.681Z,72
2016-06-25T00:24:22.695Z,72.29
2016-06-25T00:25:22.693Z,72
2016-06-25T00:26:22.694Z,72.09
2016-06-25T00:27:22.701Z,72.29
2016-06-25T00:28:22.715Z,72.19
2016-06-25T00:29:22.715Z,72
2016-06-25T00:30:22.703Z,72.06
2016-06-25T00:31:22.707Z,72.49
2016-06-25T00:32:22.721Z,72.09
2016-06-25T00:33:22.908Z,72.29
2016-06-25T00:34:22.718Z,72.29
2016-06-25T00:35:22.716Z,72.29
2016-06-25T00:36:22.730Z,72.19
2016-06-25T00:37:22.737Z,72.09
2016-06-25T00:38:22.726Z,72.19
2016-06-25T00:39:23.128Z,72.19
2016-06-25T00:40:22.734Z,72.09
2016-06-25T00:41:22.732Z,72.16
2016-06-25T00:42:22.768Z,72.25
2016-06-25T00:43:22.730Z,72.19
2016-06-25T00:44:22.740Z,72.06
2016-06-25T00:45:22.749Z,72.35
2016-06-25T00:46:22.758Z,72.16
2016-06-25T00:47:22.766Z,72.06
2016-06-25T00:48:22.752Z,72.45
2016-06-25T00:49:22.757Z,72.06
2016-06-25T00:50:22.749Z,72.45
2016-06-25T00:51:22.763Z,72.06
2016-06-25T00:52:22.760Z,72.06
2016-06-25T00:53:22.785Z,72.06
2016-06-25T00:54:22.770Z,72.06
2016-06-25T00:55:22.771Z,72.16
2016-06-25T00:56:22.772Z,72.06
2016-06-25T00:57:22.770Z,72.64
2016-06-25T00:58:22.780Z,72.16
2016-06-25T00:59:22.783Z,71.96
2016-06-25T01:00:22.793Z,72.06
2016-06-25T01:01:22.987Z,72.16
2016-06-25T01:02:22.792Z,72.35
2016-06-25T01:03:22.787Z,72.35
2016-06-25T01:04:22.789Z,72.16
2016-06-25T01:05:22.791Z,72.16
2016-06-25T01:06:22.803Z,72.16
2016-06-25T01:07:22.996Z,72.25
2016-06-25T01:08:22.807Z,72.16
2016-06-25T01:09:22.799Z,71.86
2016-06-25T01:10:22.806Z,72.06
2016-06-25T01:11:22.805Z,72.25
2016-06-25T01:12:22.822Z,71.86
2016-06-25T01:13:22.818Z,72.16
2016-06-25T01:14:22.822Z,72.06
2016-06-25T01:15:22.821Z,72.06
2016-06-25T01:16:22.827Z,72.25
2016-06-25T01:17:22.822Z,72.25
2016-06-25T01:18:23.025Z,72.06
2016-06-25T01:19:22.840Z,72.25
2016-06-25T01:20:22.832Z,72.06
2016-06-25T01:21:23.036Z,72.06
2016-06-25T01:22:22.835Z,72.25
2016-06-25T01:23:22.844Z,72.35
2016-06-25T01:24:22.842Z,72.06
2016-06-25T01:25:22.844Z,72.25
2016-06-25T01:26:23.047Z,72.25
2016-06-25T01:27:22.850Z,72.35
2016-06-25T01:28:23.055Z,71.86
2016-06-25T01:29:22.846Z,72.35
2016-06-25T01:30:22.858Z,72.16
2016-06-25T01:31:22.868Z,72.16
2016-06-25T01:32:22.869Z,72.06
2016-06-25T01:33:22.866Z,72.16
2016-06-25T01:34:22.874Z,72.35
2016-06-25T01:35:23.076Z,72.02
2016-06-25T01:36:22.875Z,72.31
2016-06-25T01:37:22.871Z,72.35
2016-06-25T01:38:22.881Z,72.06
2016-06-25T01:39:22.883Z,72.06
2016-06-25T01:40:22.884Z,72.02
2016-06-25T01:41:22.892Z,72.16
2016-06-25T01:42:22.887Z,72.25
2016-06-25T01:43:22.886Z,72.06
2016-06-25T01:44:22.903Z,72.06
2016-06-25T01:45:22.892Z,72.25
2016-06-25T01:46:23.098Z,72.16
2016-06-25T01:47:22.895Z,72.12
2016-06-25T01:48:22.906Z,72.16
2016-06-25T01:49:22.897Z,72.16
2016-06-25T01:50:22.907Z,72.64
2016-06-25T01:51:22.910Z,71.96
2016-06-25T01:52:22.906Z,72.12
2016-06-25T01:53:22.915Z,72.25
2016-06-25T01:54:22.909Z,71.96
2016-06-25T01:55:22.920Z,72.02
2016-06-25T01:56:22.918Z,72.06
2016-06-25T01:57:23.132Z,72.12
2016-06-25T01:58:22.927Z,72.35
2016-06-25T01:59:22.937Z,72.22
2016-06-25T02:00:22.924Z,72.06
2016-06-25T02:01:22.935Z,72.06
2016-06-25T02:02:22.934Z,72.22
2016-06-25T02:03:22.938Z,72.02
2016-06-25T02:04:22.940Z,72.12
2016-06-25T02:05:22.938Z,72.12
2016-06-25T02:06:22.939Z,72.31
2016-06-25T02:07:22.954Z,72.31
2016-06-25T02:08:22.944Z,72.12
2016-06-25T02:09:22.948Z,72.12
2016-06-25T02:10:22.958Z,72.12
2016-06-25T02:11:22.965Z,71.83
2016-06-25T02:12:22.954Z,72.02
2016-06-25T02:13:22.960Z,72.02
2016-06-25T02:14:22.969Z,72.41
2016-06-25T02:15:22.971Z,72.22
2016-06-25T02:16:22.964Z,72.22
2016-06-25T02:17:22.977Z,72.02
2016-06-25T02:18:22.973Z,72.12
2016-06-25T02:19:22.973Z,72.02
2016-06-25T02:20:22.981Z,72.22
2016-06-25T02:21:22.976Z,72.31
2016-06-25T02:22:22.978Z,72.41
2016-06-25T02:23:22.984Z,72.02
2016-06-25T02:24:22.982Z,72.22
2016-06-25T02:25:23.186Z,72.12
2016-06-25T02:26:23.003Z,72.02
2016-06-25T02:27:22.981Z,72.12
2016-06-25T02:28:22.998Z,72.02
2016-06-25T02:29:23.017Z,72.51
2016-06-25T02:30:22.990Z,72.51
2016-06-25T02:31:22.997Z,72.51
2016-06-25T02:32:23.018Z,72.31
2016-06-25T02:33:23.017Z,72.41
2016-06-25T02:34:23.214Z,72.12
2016-06-25T02:35:23.201Z,72.02
2016-06-25T02:36:23.010Z,72.41
2016-06-25T02:37:23.019Z,72.51
2016-06-25T02:38:23.017Z,72.31
2016-06-25T02:39:23.015Z,72.02
2016-06-25T02:40:23.023Z,72.41
2016-06-25T02:41:23.231Z,72.31
2016-06-25T02:42:23.226Z,72.41
2016-06-25T02:43:23.029Z,72.51
2016-06-25T02:44:23.236Z,72.31
2016-06-25T02:45:23.040Z,72.51
2016-06-25T02:46:23.043Z,72.31
2016-06-25T02:47:23.036Z,72.31
2016-06-25T02:48:23.052Z,72.02
2016-06-25T02:49:23.048Z,72.41
2016-06-25T02:50:23.039Z,72.41
2016-06-25T02:51:23.049Z,72.31
2016-06-25T02:52:23.054Z,72.31
2016-06-25T02:53:23.058Z,72.02
2016-06-25T02:54:23.052Z,72.02
2016-06-25T02:55:23.051Z,72.12
2016-06-25T02:56:23.055Z,72.61
2016-06-25T02:57:23.058Z,72.71
2016-06-25T02:58:23.070Z,72.02
2016-06-25T02:59:23.078Z,72.12
2016-06-25T03:00:23.060Z,72.31
2016-06-25T03:01:23.272Z,72.02
2016-06-25T03:02:23.083Z,72.22
2016-06-25T03:03:23.071Z,72.41
2016-06-25T03:04:23.062Z,72.02
2016-06-25T03:05:23.073Z,72.02
2016-06-25T03:06:23.075Z,72.12
2016-06-25T03:07:23.276Z,72.02
2016-06-25T03:08:23.072Z,72.02
2016-06-25T03:09:23.090Z,72.22
2016-06-25T03:10:23.085Z,72.31
2016-06-25T03:11:23.087Z,72.22
2016-06-25T03:12:23.098Z,72.02
2016-06-25T03:13:23.098Z,72.31
2016-06-25T03:14:23.092Z,72.31
2016-06-25T03:15:23.218Z,72.22
2016-06-25T03:16:23.101Z,72.51
2016-06-25T03:17:23.269Z,72.31
2016-06-25T03:18:23.216Z,72.12
2016-06-25T03:19:23.162Z,72.31
2016-06-25T03:20:23.218Z,72.41
2016-06-25T03:21:23.219Z,72.28
2016-06-25T03:22:23.220Z,72.51
2016-06-25T03:23:23.114Z,72.28
2016-06-25T03:24:23.119Z,72.28
2016-06-25T03:25:23.108Z,72.09
2016-06-25T03:26:23.117Z,72.38
2016-06-25T03:27:23.123Z,72.28
2016-06-25T03:28:23.127Z,72.41
2016-06-25T03:29:23.120Z,72.28
2016-06-25T03:30:23.133Z,72.28
2016-06-25T03:31:23.139Z,72.18
2016-06-25T03:32:23.133Z,71.99
2016-06-25T03:33:23.130Z,72.28
2016-06-25T03:34:23.135Z,72.38
2016-06-25T03:35:23.143Z,72.38
2016-06-25T03:36:23.150Z,72.28
2016-06-25T03:37:23.150Z,72.51
2016-06-25T03:38:23.155Z,72.09
2016-06-25T03:39:23.159Z,71.93
2016-06-25T03:40:23.150Z,72.38
2016-06-25T03:41:23.145Z,72.38
2016-06-25T03:42:23.359Z,72.47
2016-06-25T03:43:23.361Z,72.47
2016-06-25T03:44:23.154Z,72.41
2016-06-25T03:45:23.156Z,72.18
2016-06-25T03:46:23.165Z,71.8
2016-06-25T03:47:23.169Z,72.28
2016-06-25T03:48:23.162Z,72.38
2016-06-25T03:49:23.163Z,72.38
2016-06-25T03:50:23.173Z,72.38
2016-06-25T03:51:23.170Z,71.99
2016-06-25T03:52:23.379Z,72.28
2016-06-25T03:53:23.173Z,72.09
2016-06-25T03:54:23.185Z,72.28
2016-06-25T03:55:23.178Z,72.38
2016-06-25T03:56:23.182Z,71.99
2016-06-25T03:57:23.187Z,71.99
2016-06-25T03:58:23.184Z,71.99
2016-06-25T03:59:23.195Z,71.99
2016-06-25T04:00:23.193Z,72.09
2016-06-25T04:01:23.195Z,72.38
2016-06-25T04:02:23.189Z,72.38
2016-06-25T04:03:23.201Z,71.99
2016-06-25T04:04:23.204Z,71.99
2016-06-25T04:05:23.195Z,72.18
2016-06-25T04:06:23.197Z,72.09
2016-06-25T04:07:23.199Z,71.99
2016-06-25T04:08:23.206Z,72.18
2016-06-25T04:09:23.206Z,72.28
2016-06-25T04:10:23.210Z,72.28
2016-06-25T04:11:23.212Z,72.28
2016-06-25T04:12:23.209Z,72.28
2016-06-25T04:13:23.214Z,72.47
2016-06-25T04:14:23.218Z,71.89
2016-06-25T04:15:23.218Z,72.28
2016-06-25T04:16:23.229Z,72.77
2016-06-25T04:17:23.225Z,72.28
2016-06-25T04:18:23.229Z,72.28
2016-06-25T04:19:23.222Z,72.47
2016-06-25T04:20:23.242Z,72.38
2016-06-25T04:21:23.230Z,72.18
2016-06-25T04:22:23.239Z,72.09
2016-06-25T04:23:23.241Z,71.89
2016-06-25T04:24:23.241Z,72.09
2016-06-25T04:25:23.238Z,71.89
2016-06-25T04:26:23.240Z,71.89
2016-06-25T04:27:23.245Z,72.09
2016-06-25T04:28:23.249Z,71.99
2016-06-25T04:29:23.248Z,71.99
2016-06-25T04:30:23.452Z,72.18
2016-06-25T04:31:23.245Z,72.28
2016-06-25T04:32:23.258Z,72.38
2016-06-25T04:33:23.260Z,72.28
2016-06-25T04:34:23.267Z,72.28
2016-06-25T04:35:23.255Z,72.38
2016-06-25T04:36:23.258Z,71.99
2016-06-25T04:37:23.265Z,71.99
2016-06-25T04:38:23.263Z,72.57
2016-06-25T04:39:23.259Z,72.09
2016-06-25T04:40:23.274Z,72.57
2016-06-25T04:41:23.269Z,72.18
2016-06-25T04:42:23.287Z,72.28
2016-06-25T04:43:23.493Z,72.38
2016-06-25T04:44:23.286Z,72.38
2016-06-25T04:45:23.483Z,72.28
2016-06-25T04:46:23.282Z,71.99
2016-06-25T04:47:23.283Z,71.8
2016-06-25T04:48:23.298Z,72.18
2016-06-25T04:49:23.493Z,71.99
2016-06-25T04:50:23.284Z,72.28
2016-06-25T04:51:23.286Z,72.28
2016-06-25T04:52:23.300Z,72.28
2016-06-25T04:53:23.305Z,72.38
2016-06-25T04:54:23.298Z,72.38
2016-06-25T04:55:23.297Z,72.28
2016-06-25T04:56:23.301Z,71.99
2016-06-25T04:57:23.506Z,72.28
2016-06-25T04:58:23.321Z,71.99
2016-06-25T04:59:23.302Z,72.09
2016-06-25T05:00:23.307Z,72.18
2016-06-25T05:01:23.313Z,72.38
2016-06-25T05:02:23.302Z,72.38
2016-06-25T05:03:23.323Z,72.38
2016-06-25T05:04:23.524Z,72.57
2016-06-25T05:05:23.308Z,72.18
2016-06-25T05:06:23.529Z,71.99
2016-06-25T05:07:23.321Z,71.95
2016-06-25T05:08:23.321Z,72.47
2016-06-25T05:09:23.335Z,72.28
2016-06-25T05:10:23.527Z,72.18
2016-06-25T05:11:23.335Z,72.38
2016-06-25T05:12:23.327Z,72.18
2016-06-25T05:13:23.342Z,72.18
2016-06-25T05:14:23.336Z,72.38
2016-06-25T05:15:23.351Z,72.09
2016-06-25T05:16:23.329Z,71.99
2016-06-25T05:17:23.345Z,72.09
2016-06-25T05:18:23.342Z,72.15
2016-06-25T05:19:23.349Z,72.44
2016-06-25T05:20:23.386Z,72.24
2016-06-25T05:21:23.347Z,72.34
2016-06-25T05:22:23.353Z,71.95
2016-06-25T05:23:23.353Z,71.95
2016-06-25T05:24:23.359Z,72.05
2016-06-25T05:25:23.355Z,72.05
2016-06-25T05:26:23.360Z,71.95
2016-06-25T05:27:23.367Z,71.95
2016-06-25T05:28:23.360Z,71.99
2016-06-25T05:29:23.363Z,72.05
2016-06-25T05:30:23.375Z,72.09
2016-06-25T05:31:23.387Z,72.28
2016-06-25T05:32:23.572Z,72.18
2016-06-25T05:33:23.372Z,72.18
2016-06-25T05:34:23.372Z,72.28
2016-06-25T05:35:23.389Z,72.44
2016-06-25T05:36:23.384Z,72.09
2016-06-25T05:37:23.580Z,72.09
2016-06-25T05:38:23.381Z,71.99
2016-06-25T05:39:23.379Z,71.8
2016-06-25T05:40:23.579Z,71.99
2016-06-25T05:41:23.392Z,71.95
2016-06-25T05:42:23.391Z,72.47
2016-06-25T05:43:23.381Z,72.15
2016-06-25T05:44:23.386Z,72.09
2016-06-25T05:45:23.394Z,71.8
2016-06-25T05:46:23.598Z,71.86
2016-06-25T05:47:23.400Z,72.47
2016-06-25T05:48:23.405Z,72.34
2016-06-25T05:49:23.403Z,72.05
2016-06-25T05:50:23.397Z,72.38
2016-06-25T05:51:23.410Z,72.09
2016-06-25T05:52:23.419Z,72.24
2016-06-25T05:53:23.413Z,71.99
2016-06-25T05:54:23.426Z,72.28
2016-06-25T05:55:23.398Z,72.09
2016-06-25T05:56:23.407Z,71.95
2016-06-25T05:57:23.411Z,72.09
2016-06-25T05:58:23.411Z,71.95
2016-06-25T05:59:23.417Z,71.95
2016-06-25T06:00:23.434Z,72.05
2016-06-25T06:01:23.434Z,72.24
2016-06-25T06:02:23.619Z,71.95
2016-06-25T06:03:23.428Z,71.95
2016-06-25T06:04:23.432Z,72.05
2016-06-25T06:05:23.629Z,71.99
2016-06-25T06:06:23.422Z,72.44
2016-06-25T06:07:23.440Z,72.34
2016-06-25T06:08:23.431Z,72.09
2016-06-25T06:09:23.437Z,71.99
2016-06-25T06:10:23.443Z,71.95
2016-06-25T06:11:23.440Z,71.99
2016-06-25T06:12:23.442Z,71.8
2016-06-25T06:13:23.445Z,71.56
2016-06-25T06:14:23.645Z,71.56
2016-06-25T06:15:23.444Z,71.89
2016-06-25T06:16:23.454Z,71.89
2016-06-25T06:17:23.457Z,72.24
2016-06-25T06:18:23.452Z,72.05
2016-06-25T06:19:23.452Z,71.76
2016-06-25T06:20:23.446Z,71.76
2016-06-25T06:21:23.464Z,71.76
2016-06-25T06:22:23.469Z,71.8
2016-06-25T06:23:23.464Z,71.47
2016-06-25T06:24:23.459Z,71.86
2016-06-25T06:25:23.473Z,71.76
2016-06-25T06:26:23.461Z,71.7
2016-06-25T06:27:23.471Z,71.95
2016-06-25T06:28:23.467Z,72.05
2016-06-25T06:29:23.875Z,72.05
2016-06-25T06:30:23.500Z,72.05
2016-06-25T06:31:23.684Z,72.44
2016-06-25T06:32:23.481Z,72.53
2016-06-25T06:33:23.478Z,72.24
2016-06-25T06:34:23.475Z,72.24
2016-06-25T06:35:23.484Z,72.34
2016-06-25T06:36:23.483Z,72.15
2016-06-25T06:37:23.491Z,72.34
2016-06-25T06:38:23.689Z,72.44
2016-06-25T06:39:23.485Z,72.34
2016-06-25T06:40:23.497Z,72.34
2016-06-25T06:41:23.490Z,72.05
2016-06-25T06:42:23.493Z,72.34
2016-06-25T06:43:23.488Z,72.44
2016-06-25T06:44:23.499Z,72.24
2016-06-25T06:45:23.503Z,72.15
2016-06-25T06:46:23.499Z,72.15
2016-06-25T06:47:23.517Z,72.15
2016-06-25T06:48:23.503Z,72.34
2016-06-25T06:49:23.511Z,72.73
2016-06-25T06:50:23.513Z,72.44
2016-06-25T06:51:23.505Z,72.34
2016-06-25T06:52:23.504Z,72.34
2016-06-25T06:53:23.506Z,72.44
2016-06-25T06:54:23.513Z,72.05
2016-06-25T06:55:23.519Z,72.44
2016-06-25T06:56:23.526Z,72.24
2016-06-25T06:57:23.522Z,72.34
2016-06-25T06:58:23.522Z,72.15
2016-06-25T06:59:23.531Z,72.24
2016-06-25T07:00:23.533Z,72.34
2016-06-25T07:01:23.542Z,72.24
2016-06-25T07:02:23.534Z,71.95
2016-06-25T07:03:23.533Z,72.34
2016-06-25T07:04:23.537Z,72.34
2016-06-25T07:05:23.550Z,72.34
2016-06-25T07:06:23.735Z,72.34
2016-06-25T07:07:23.545Z,72.34
2016-06-25T07:08:23.522Z,72.34
2016-06-25T07:09:23.734Z,72.44
2016-06-25T07:10:23.602Z,72.05
2016-06-25T07:11:23.546Z,71.95
2016-06-25T07:12:23.751Z,72.73
2016-06-25T07:13:23.547Z,72.34
2016-06-25T07:14:23.547Z,72.24
2016-06-25T07:15:23.548Z,72.44
2016-06-25T07:16:23.555Z,72.34
2016-06-25T07:17:23.549Z,72.15
2016-06-25T07:18:23.558Z,72.34
2016-06-25T07:19:23.565Z,71.76
2016-06-25T07:20:23.757Z,72.05
2016-06-25T07:21:23.562Z,71.95
2016-06-25T07:22:23.558Z,71.95
2016-06-25T07:23:23.567Z,71.95
2016-06-25T07:24:23.564Z,71.95
2016-06-25T07:25:23.577Z,71.86
2016-06-25T07:26:23.567Z,71.66
2016-06-25T07:27:23.567Z,71.95
2016-06-25T07:28:23.565Z,71.95
2016-06-25T07:29:23.572Z,72.05
2016-06-25T07:30:23.576Z,72.05
2016-06-25T07:31:23.579Z,72.15
2016-06-25T07:32:23.579Z,71.95
2016-06-25T07:33:23.576Z,72.24
2016-06-25T07:34:23.579Z,72.15
2016-06-25T07:35:23.577Z,72.05
2016-06-25T07:36:23.582Z,71.95
2016-06-25T07:37:23.598Z,72.34
2016-06-25T07:38:23.585Z,72.44
2016-06-25T07:39:23.591Z,72.5
2016-06-25T07:40:23.591Z,72.53
2016-06-25T07:41:23.595Z,72.63
2016-06-25T07:42:23.591Z,72.44
2016-06-25T07:43:23.606Z,72.3
2016-06-25T07:44:23.596Z,72.53
2016-06-25T07:45:23.593Z,72.53
2016-06-25T07:46:23.591Z,72.34
2016-06-25T07:47:23.615Z,72.79
2016-06-25T07:48:23.598Z,72.89
2016-06-25T07:49:23.606Z,72.89
2016-06-25T07:50:23.616Z,72.4
2016-06-25T07:51:23.615Z,72.92
2016-06-25T07:52:23.607Z,72.69
2016-06-25T07:53:23.619Z,72.53
2016-06-25T07:54:23.609Z,72.63
2016-06-25T07:55:23.613Z,72.5
2016-06-25T07:56:23.611Z,72.53
2016-06-25T07:57:23.615Z,72.6
2016-06-25T07:58:23.821Z,72.5
2016-06-25T07:59:23.621Z,72.44
2016-06-25T08:00:23.624Z,72.3
2016-06-25T08:01:23.624Z,72.69
2016-06-25T08:02:23.671Z,72.44
2016-06-25T08:03:23.821Z,72.6
2016-06-25T08:04:23.631Z,72.3
2016-06-25T08:05:23.637Z,72.5
2016-06-25T08:06:23.631Z,72.24
2016-06-25T08:07:23.625Z,72.24
2016-06-25T08:08:23.643Z,72.21
2016-06-25T08:09:23.642Z,72.02
2016-06-25T08:10:23.633Z,72.34
2016-06-25T08:11:23.642Z,72.11
2016-06-25T08:12:23.646Z,72.11
2016-06-25T08:13:23.657Z,72.05
2016-06-25T08:14:23.841Z,71.92
2016-06-25T08:15:23.647Z,72.11
2016-06-25T08:16:23.650Z,72.4
2016-06-25T08:17:23.647Z,72.5
2016-06-25T08:18:23.659Z,72.11
2016-06-25T08:19:23.654Z,72.11
2016-06-25T08:20:23.649Z,72.11
2016-06-25T08:21:23.652Z,72.21
2016-06-25T08:22:23.874Z,72.02
2016-06-25T08:23:23.670Z,71.72
2016-06-25T08:24:23.650Z,72.02
2016-06-25T08:25:23.700Z,71.92
2016-06-25T08:26:23.718Z,72.3
2016-06-25T08:27:23.671Z,72.3
2016-06-25T08:28:23.679Z,72.3
2016-06-25T08:29:23.873Z,72.21
2016-06-25T08:30:23.662Z,72.4
2016-06-25T08:31:23.671Z,71.72
2016-06-25T08:32:23.673Z,71.92
2016-06-25T08:33:23.675Z,71.82
2016-06-25T08:34:23.669Z,72.02
2016-06-25T08:35:23.675Z,72.02
2016-06-25T08:36:23.678Z,72.02
2016-06-25T08:37:23.679Z,71.92
2016-06-25T08:38:23.881Z,72.11
2016-06-25T08:39:23.683Z,71.95
2016-06-25T08:40:23.681Z,72.11
2016-06-25T08:41:23.686Z,72.11
2016-06-25T08:42:23.687Z,72.11
2016-06-25T08:43:23.894Z,71.92
2016-06-25T08:44:23.685Z,72.11
2016-06-25T08:45:23.694Z,71.92
2016-06-25T08:46:23.902Z,72.02
2016-06-25T08:47:23.712Z,71.92
2016-06-25T08:48:23.894Z,71.82
2016-06-25T08:49:23.702Z,72.21
2016-06-25T08:50:23.700Z,72.3
2016-06-25T08:51:23.695Z,72.4
2016-06-25T08:52:23.697Z,72.3
2016-06-25T08:53:23.910Z,72.4
2016-06-25T08:54:23.695Z,72.4
2016-06-25T08:55:23.711Z,72.69
2016-06-25T08:56:23.711Z,72.69
2016-06-25T08:57:23.710Z,72.5
2016-06-25T08:58:23.731Z,72.6
2016-06-25T08:59:23.719Z,72.6
2016-06-25T09:00:23.939Z,72.6
2016-06-25T09:01:23.711Z,72.79
2016-06-25T09:02:23.762Z,72.79
2016-06-25T09:03:23.924Z,72.79
2016-06-25T09:04:23.716Z,72.6
2016-06-25T09:05:23.742Z,72.3
2016-06-25T09:06:23.714Z,72.4
2016-06-25T09:07:23.721Z,72.6
2016-06-25T09:08:23.955Z,72.5
2016-06-25T09:09:23.735Z,72.4
2016-06-25T09:10:23.761Z,72.4
2016-06-25T09:11:23.738Z,72.4
2016-06-25T09:12:23.729Z,72.4
2016-06-25T09:13:23.731Z,72.4
2016-06-25T09:14:23.737Z,72.21
2016-06-25T09:15:23.729Z,72.3
2016-06-25T09:16:23.728Z,72.21
2016-06-25T09:17:23.733Z,71.92
2016-06-25T09:18:23.741Z,72.02
2016-06-25T09:19:23.742Z,72.11
2016-06-25T09:20:23.948Z,72.11
2016-06-25T09:21:23.753Z,71.92
2016-06-25T09:22:23.765Z,72.02
2016-06-25T09:23:23.753Z,71.72
2016-06-25T09:24:23.738Z,72.3
2016-06-25T09:25:23.760Z,72.02
2016-06-25T09:26:23.751Z,72.6
2016-06-25T09:27:23.770Z,71.82
2016-06-25T09:28:23.757Z,71.82
2016-06-25T09:29:23.763Z,71.92
2016-06-25T09:30:23.752Z,71.92
2016-06-25T09:31:23.754Z,72.02
2016-06-25T09:32:23.757Z,72.02
2016-06-25T09:33:23.763Z,72.02
2016-06-25T09:34:23.774Z,72.11
2016-06-25T09:35:23.774Z,72.21
2016-06-25T09:36:23.783Z,72.3
2016-06-25T09:37:23.770Z,72.21
2016-06-25T09:38:23.775Z,71.92
2016-06-25T09:39:23.790Z,72.21
2016-06-25T09:40:23.775Z,72.21
2016-06-25T09:41:23.776Z,72.11
2016-06-25T09:42:23.780Z,72.11
2016-06-25T09:43:23.787Z,72.3
2016-06-25T09:44:23.814Z,72.11
2016-06-25T09:45:23.790Z,72.02
2016-06-25T09:46:23.787Z,72.3
2016-06-25T09:47:23.777Z,72.11
2016-06-25T09:48:24.350Z,72.02
2016-06-25T09:49:23.781Z,72.02
2016-06-25T09:50:23.796Z,72.02
2016-06-25T09:51:23.786Z,72.11
2016-06-25T09:52:23.799Z,72.21
2016-06-25T09:53:23.795Z,72.4
2016-06-25T09:54:23.794Z,72.11
2016-06-25T09:55:23.788Z,72.11
2016-06-25T09:56:23.806Z,72.11
2016-06-25T09:57:23.793Z,72.02
2016-06-25T09:58:24.034Z,72.21
2016-06-25T09:59:23.797Z,72.21
2016-06-25T10:00:23.804Z,72.11
2016-06-25T10:01:23.800Z,72.02
2016-06-25T10:02:24.059Z,72.02
2016-06-25T10:03:23.812Z,72.11
2016-06-25T10:04:24.007Z,72.11
2016-06-25T10:05:23.811Z,72.02
2016-06-25T10:06:23.820Z,72.3
2016-06-25T10:07:23.806Z,72.3
2016-06-25T10:08:23.807Z,72.11
2016-06-25T10:09:23.805Z,72.3
2016-06-25T10:10:23.824Z,72.3
2016-06-25T10:11:23.813Z,72.3
2016-06-25T10:12:23.815Z,71.92
2016-06-25T10:13:23.829Z,72.02
2016-06-25T10:14:23.825Z,72.3
2016-06-25T10:15:23.835Z,72.02
2016-06-25T10:16:24.034Z,72.02
2016-06-25T10:17:24.022Z,72.02
2016-06-25T10:18:23.830Z,72.02
2016-06-25T10:19:23.828Z,72.02
2016-06-25T10:20:23.828Z,72.4
2016-06-25T10:21:23.843Z,72.4
2016-06-25T10:22:23.834Z,72.4
2016-06-25T10:23:23.845Z,72.3
2016-06-25T10:24:23.842Z,72.3
2016-06-25T10:25:24.306Z,72.3
2016-06-25T10:26:23.845Z,72.4
2016-06-25T10:27:23.839Z,72.3
2016-06-25T10:28:23.840Z,72.3
2016-06-25T10:29:24.127Z,72.4
2016-06-25T10:30:23.836Z,72.02
2016-06-25T10:31:23.852Z,72.4
2016-06-25T10:32:23.842Z,71.92
2016-06-25T10:33:23.847Z,72.11
2016-06-25T10:34:24.050Z,72.3
2016-06-25T10:35:23.851Z,72.02
2016-06-25T10:36:23.840Z,71.92
2016-06-25T10:37:23.870Z,72.3
2016-06-25T10:38:23.845Z,72.21
2016-06-25T10:39:23.865Z,72.4
2016-06-25T10:40:23.854Z,72.4
2016-06-25T10:41:23.861Z,72.3
2016-06-25T10:42:23.861Z,72.02
2016-06-25T10:43:23.859Z,72.21
2016-06-25T10:44:24.062Z,72.21
2016-06-25T10:45:23.870Z,72.02
2016-06-25T10:46:23.858Z,72.3
2016-06-25T10:47:23.866Z,72.4
2016-06-25T10:48:23.861Z,72.11
2016-06-25T10:49:23.860Z,72.21
2016-06-25T10:50:23.885Z,72.11
2016-06-25T10:51:23.870Z,72.3
2016-06-25T10:52:23.881Z,72.3
2016-06-25T10:53:23.877Z,72.4
2016-06-25T10:54:23.865Z,72.4
2016-06-25T10:55:23.902Z,72.21
2016-06-25T10:56:23.879Z,72.21
2016-06-25T10:57:23.882Z,72.4
2016-06-25T10:58:23.886Z,72.3
2016-06-25T10:59:23.877Z,72.02
2016-06-25T11:00:23.890Z,72.4
2016-06-25T11:01:23.881Z,72.3
2016-06-25T11:02:23.977Z,72.3
2016-06-25T11:03:23.886Z,72.3
2016-06-25T11:04:23.885Z,72.3
2016-06-25T11:05:23.896Z,72.4
2016-06-25T11:06:23.885Z,72.3
2016-06-25T11:07:23.897Z,71.92
2016-06-25T11:08:23.891Z,71.92
2016-06-25T11:09:23.884Z,71.92
2016-06-25T11:10:23.891Z,71.92
2016-06-25T11:11:24.104Z,71.92
2016-06-25T11:12:23.409Z,71.92
2016-06-25T11:13:23.913Z,71.92
2016-06-25T11:14:23.901Z,71.92
2016-06-25T11:15:23.911Z,71.72
2016-06-25T11:16:23.903Z,71.92
2016-06-25T11:17:23.924Z,71.92
2016-06-25T11:18:24.123Z,72.02
2016-06-25T11:19:23.944Z,72.02
2016-06-25T11:20:23.912Z,72.3
2016-06-25T11:21:23.918Z,72.3
2016-06-25T11:22:23.921Z,71.92
2016-06-25T11:23:24.142Z,71.92
2016-06-25T11:24:23.957Z,71.72
2016-06-25T11:25:23.915Z,71.92
2016-06-25T11:26:23.938Z,71.72
2016-06-25T11:27:23.912Z,71.72
2016-06-25T11:28:23.915Z,71.62
2016-06-25T11:29:23.928Z,71.92
2016-06-25T11:30:23.921Z,71.82
2016-06-25T11:31:23.931Z,71.62
2016-06-25T11:32:23.937Z,71.72
2016-06-25T11:33:23.921Z,71.72
2016-06-25T11:34:23.922Z,71.62
2016-06-25T11:35:23.932Z,71.82
2016-06-25T11:36:23.935Z,71.53
2016-06-25T11:37:23.928Z,71.62
2016-06-25T11:38:23.935Z,71.53
2016-06-25T11:39:23.926Z,71.53
2016-06-25T11:40:23.960Z,71.62
2016-06-25T11:41:23.938Z,71.92
2016-06-25T11:42:23.930Z,71.82
2016-06-25T11:43:23.930Z,71.53
2016-06-25T11:44:23.943Z,71.53
2016-06-25T11:45:24.153Z,71.62
2016-06-25T11:46:23.945Z,71.53
2016-06-25T11:47:23.949Z,71.53
2016-06-25T11:48:24.139Z,71.72
2016-06-25T11:49:23.941Z,71.72
2016-06-25T11:50:23.961Z,71.44
2016-06-25T11:51:23.954Z,71.53
2016-06-25T11:52:23.949Z,71.62
2016-06-25T11:53:23.963Z,71.44
2016-06-25T11:54:23.959Z,71.53
2016-06-25T11:55:23.959Z,71.92
2016-06-25T11:56:23.972Z,71.53
2016-06-25T11:57:23.953Z,71.92
2016-06-25T11:58:23.962Z,71.72
2016-06-25T11:59:23.964Z,71.53
2016-06-25T12:00:23.960Z,71.72
2016-06-25T12:01:23.968Z,71.53
2016-06-25T12:02:23.967Z,71.72
2016-06-25T12:03:23.959Z,71.53
2016-06-25T12:04:23.959Z,71.53
2016-06-25T12:05:23.963Z,71.53
2016-06-25T12:06:23.971Z,71.62
2016-06-25T12:07:23.971Z,71.72
2016-06-25T12:08:24.118Z,71.62
2016-06-25T12:09:23.977Z,71.62
2016-06-25T12:10:23.967Z,71.53
2016-06-25T12:11:23.974Z,71.53
2016-06-25T12:12:23.971Z,71.53
2016-06-25T12:13:24.242Z,71.82
2016-06-25T12:14:23.992Z,71.53
2016-06-25T12:15:23.979Z,71.53
2016-06-25T12:16:24.180Z,71.62
2016-06-25T12:17:23.980Z,71.53
2016-06-25T12:18:23.978Z,71.44
2016-06-25T12:19:23.984Z,71.82
2016-06-25T12:20:23.985Z,71.62
2016-06-25T12:21:23.987Z,71.92
2016-06-25T12:22:23.987Z,71.62
2016-06-25T12:23:23.991Z,71.62
2016-06-25T12:24:23.998Z,71.62
2016-06-25T12:25:23.991Z,71.62
2016-06-25T12:26:23.988Z,71.44
2016-06-25T12:27:23.986Z,71.92
2016-06-25T12:28:23.993Z,71.53
2016-06-25T12:29:24.006Z,71.72
2016-06-25T12:30:23.995Z,71.44
2016-06-25T12:31:23.991Z,71.72
2016-06-25T12:32:24.015Z,71.72
2016-06-25T12:33:24.010Z,71.72
2016-06-25T12:34:24.015Z,71.92
2016-06-25T12:35:24.206Z,71.72
2016-06-25T12:36:24.014Z,71.72
2016-06-25T12:37:24.407Z,71.82
2016-06-25T12:38:24.003Z,71.62
2016-06-25T12:39:24.026Z,71.92
2016-06-25T12:40:24.217Z,71.53
2016-06-25T12:41:23.998Z,71.53
2016-06-25T12:42:24.020Z,71.53
2016-06-25T12:43:24.015Z,71.59
2016-06-25T12:44:24.032Z,71.82
2016-06-25T12:45:24.015Z,71.53
2016-06-25T12:46:24.019Z,71.44
2016-06-25T12:47:24.033Z,71.62
2016-06-25T12:48:24.029Z,71.62
2016-06-25T12:49:24.019Z,71.59
2016-06-25T12:50:24.029Z,71.69
2016-06-25T12:51:24.022Z,71.59
2016-06-25T12:52:24.030Z,71.88
2016-06-25T12:53:24.020Z,71.88
2016-06-25T12:54:24.031Z,71.78
2016-06-25T12:55:24.036Z,71.88